createdAt,value
2023-05-06T00:00:06.841Z,0.00
2023-05-06T00:01:06.810Z,0.00
2023-05-06T00:02:06.880Z,0.00
2023-05-06T00:03:06.895Z,0.00
2023-05-06T00:04:06.909Z,0.00
2023-05-06T00:05:06.967Z,0.00
2023-05-06T00:06:06.752Z,0.00
2023-05-06T00:07:06.782Z,0.00
2023-05-06T00:08:06.763Z,0.00
2023-05-06T00:09:06.739Z,0.00
2023-05-06T00:10:06.730Z,0.00
2023-05-06T00:11:06.758Z,0.00
2023-05-06T00:12:06.708Z,0.00
2023-05-06T00:13:06.737Z,0.00
2023-05-06T00:14:06.714Z,0.00
2023-05-06T00:15:06.752Z,0.00
2023-05-06T00:16:06.692Z,0.00
2023-05-06T00:17:06.666Z,0.00
2023-05-06T00:18:06.695Z,0.00
2023-05-06T00:19:06.648Z,0.00
2023-05-06T00:20:06.662Z,0.00
2023-05-06T00:21:06.640Z,0.00
2023-05-06T00:22:06.629Z,0.00
2023-05-06T00:23:06.624Z,0.00
2023-05-06T00:24:06.623Z,0.00
2023-05-06T00:25:06.691Z,0.00
2023-05-06T00:26:06.617Z,0.00
2023-05-06T00:27:06.595Z,0.00
2023-05-06T00:28:06.605Z,0.00
2023-05-06T00:29:06.608Z,0.00
2023-05-06T00:30:06.567Z,0.00
2023-05-06T00:31:06.570Z,0.00
2023-05-06T00:32:06.548Z,0.00
2023-05-06T00:33:06.610Z,0.00
2023-05-06T00:34:06.549Z,0.00
2023-05-06T00:35:06.692Z,0.00
2023-05-06T00:36:06.548Z,0.00
2023-05-06T00:37:06.507Z,0.00
2023-05-06T00:38:06.522Z,0.00
2023-05-06T00:39:06.509Z,0.00
2023-05-06T00:40:06.509Z,0.00
2023-05-06T00:41:06.483Z,0.00
2023-05-06T00:42:06.467Z,0.00
2023-05-06T00:43:06.477Z,0.00
2023-05-06T00:44:06.628Z,0.00
2023-05-06T00:45:06.542Z,0.00
2023-05-06T00:46:06.591Z,0.00
2023-05-06T00:47:06.424Z,0.00
2023-05-06T00:48:06.493Z,0.00
2023-05-06T00:49:06.432Z,0.00
2023-05-06T00:50:06.409Z,0.00
2023-05-06T00:51:06.404Z,0.00
2023-05-06T00:52:06.408Z,0.00
2023-05-06T00:53:06.400Z,0.00
2023-05-06T00:54:06.378Z,0.00
2023-05-06T00:55:06.438Z,0.00
2023-05-06T00:56:06.359Z,0.00
2023-05-06T00:57:06.360Z,0.00
2023-05-06T00:58:06.359Z,0.00
2023-05-06T00:59:06.356Z,0.00
2023-05-06T01:00:06.381Z,0.00
2023-05-06T01:01:06.387Z,0.00
2023-05-06T01:02:06.371Z,0.00
2023-05-06T01:03:06.514Z,0.00
2023-05-06T01:04:06.321Z,0.00
2023-05-06T01:05:06.408Z,0.00
2023-05-06T01:06:06.282Z,0.00
2023-05-06T01:07:06.282Z,0.00
2023-05-06T01:08:06.295Z,0.00
2023-05-06T01:09:06.319Z,0.00
2023-05-06T01:10:06.244Z,0.00
2023-05-06T01:11:06.264Z,0.00
2023-05-06T01:12:06.218Z,0.00
2023-05-06T01:13:06.269Z,0.00
2023-05-06T01:14:06.292Z,0.00
2023-05-06T01:15:06.523Z,0.00
2023-05-06T01:16:06.210Z,0.00
2023-05-06T01:17:06.275Z,0.00
2023-05-06T01:18:06.245Z,0.00
2023-05-06T01:19:06.203Z,0.00
2023-05-06T01:20:06.175Z,0.00
2023-05-06T01:21:06.204Z,0.00
2023-05-06T01:22:06.172Z,0.00
2023-05-06T01:23:06.174Z,0.00
2023-05-06T01:24:06.126Z,0.00
2023-05-06T01:25:06.147Z,0.00
2023-05-06T01:26:06.134Z,0.00
2023-05-06T01:27:06.146Z,0.00
2023-05-06T01:28:06.120Z,0.00
2023-05-06T01:29:06.116Z,0.00
2023-05-06T01:30:06.087Z,0.00
2023-05-06T01:31:06.144Z,0.00
2023-05-06T01:32:06.171Z,0.00
2023-05-06T01:33:06.138Z,0.00
2023-05-06T01:34:06.061Z,0.00
2023-05-06T01:35:06.100Z,0.00
2023-05-06T01:36:06.040Z,0.00
2023-05-06T01:37:06.027Z,0.00
2023-05-06T01:38:06.089Z,0.00
2023-05-06T01:39:06.024Z,0.00
2023-05-06T01:40:06.002Z,0.00
2023-05-06T01:41:06.004Z,0.00
2023-05-06T01:42:05.982Z,0.00
2023-05-06T01:43:05.997Z,0.00
2023-05-06T01:44:06.048Z,0.00
2023-05-06T01:45:05.986Z,0.00
2023-05-06T01:46:06.002Z,0.00
2023-05-06T01:47:05.966Z,0.00
2023-05-06T01:48:06.036Z,0.00
2023-05-06T01:49:05.990Z,0.00
2023-05-06T01:50:05.971Z,0.00
2023-05-06T01:51:05.928Z,0.00
2023-05-06T01:52:05.907Z,0.00
2023-05-06T01:53:05.941Z,0.00
2023-05-06T01:54:05.913Z,0.00
2023-05-06T01:55:06.043Z,0.00
2023-05-06T01:56:05.932Z,0.00
2023-05-06T01:57:05.901Z,0.00
2023-05-06T01:58:05.854Z,0.00
2023-05-06T01:59:05.864Z,0.00
2023-05-06T02:00:05.861Z,0.00
2023-05-06T02:01:05.940Z,0.00
2023-05-06T02:02:06.028Z,0.00
2023-05-06T02:03:05.931Z,0.00
2023-05-06T02:04:05.931Z,0.00
2023-05-06T02:05:05.828Z,0.00
2023-05-06T02:06:05.824Z,0.00
2023-05-06T02:07:05.813Z,0.00
2023-05-06T02:08:05.812Z,0.00
2023-05-06T02:09:05.825Z,0.00
2023-05-06T02:10:05.840Z,0.00
2023-05-06T02:11:05.806Z,0.00
2023-05-06T02:12:05.811Z,0.00
2023-05-06T02:13:05.791Z,0.00
2023-05-06T02:14:05.809Z,0.00
2023-05-06T02:15:05.851Z,0.00
2023-05-06T02:16:05.789Z,0.00
2023-05-06T02:17:05.822Z,0.00
2023-05-06T02:18:05.731Z,0.00
2023-05-06T02:19:05.712Z,0.00
2023-05-06T02:20:05.872Z,0.00
2023-05-06T02:21:05.700Z,0.00
2023-05-06T02:22:05.689Z,0.00
2023-05-06T02:23:05.737Z,0.00
2023-05-06T02:24:05.696Z,0.00
2023-05-06T02:25:05.687Z,0.00
2023-05-06T02:26:05.662Z,0.00
2023-05-06T02:27:05.660Z,0.00
2023-05-06T02:28:05.654Z,0.00
2023-05-06T02:29:05.649Z,0.00
2023-05-06T02:30:05.630Z,0.00
2023-05-06T02:31:05.665Z,0.00
2023-05-06T02:32:05.626Z,0.00
2023-05-06T02:33:05.608Z,0.00
2023-05-06T02:34:05.606Z,0.00
2023-05-06T02:35:05.598Z,0.00
2023-05-06T02:36:05.642Z,0.00
2023-05-06T02:37:05.568Z,0.00
2023-05-06T02:38:05.568Z,0.00
2023-05-06T02:39:05.545Z,0.00
2023-05-06T02:40:05.551Z,0.00
2023-05-06T02:41:05.568Z,0.00
2023-05-06T02:42:05.531Z,0.00
2023-05-06T02:43:05.523Z,0.00
2023-05-06T02:44:05.520Z,0.00
2023-05-06T02:45:05.500Z,0.00
2023-05-06T02:46:05.544Z,0.00
2023-05-06T02:47:05.571Z,0.00
2023-05-06T02:48:05.514Z,0.00
2023-05-06T02:49:05.471Z,0.00
2023-05-06T02:50:05.485Z,0.00
2023-05-06T02:51:05.471Z,0.00
2023-05-06T02:52:05.505Z,0.00
2023-05-06T02:53:05.456Z,0.00
2023-05-06T02:54:05.443Z,0.00
2023-05-06T02:55:05.414Z,0.00
2023-05-06T02:56:05.450Z,0.00
2023-05-06T02:57:05.427Z,0.00
2023-05-06T02:58:05.426Z,0.00
2023-05-06T02:59:05.422Z,0.00
2023-05-06T03:00:05.413Z,0.00
2023-05-06T03:01:05.443Z,0.00
2023-05-06T03:02:05.405Z,0.00
2023-05-06T03:03:05.407Z,0.00
2023-05-06T03:04:05.402Z,0.00
2023-05-06T03:05:05.363Z,0.00
2023-05-06T03:06:05.361Z,0.00
2023-05-06T03:07:05.331Z,0.00
2023-05-06T03:08:05.391Z,0.00
2023-05-06T03:09:05.320Z,0.00
2023-05-06T03:10:05.352Z,0.00
2023-05-06T03:11:06.797Z,0.00
2023-05-06T03:12:05.316Z,0.00
2023-05-06T03:13:05.318Z,1.00
2023-05-06T03:14:05.294Z,1.00
2023-05-06T03:15:05.274Z,1.00
2023-05-06T03:16:05.325Z,1.00
2023-05-06T03:17:05.290Z,1.00
2023-05-06T03:18:05.365Z,0.00
2023-05-06T03:19:05.262Z,1.00
2023-05-06T03:20:05.242Z,1.00
2023-05-06T03:21:05.392Z,1.00
2023-05-06T03:22:05.238Z,2.00
2023-05-06T03:23:05.257Z,2.00
2023-05-06T03:24:05.267Z,1.00
2023-05-06T03:25:05.186Z,2.00
2023-05-06T03:26:05.196Z,3.00
2023-05-06T03:27:05.172Z,2.00
2023-05-06T03:28:05.181Z,3.00
2023-05-06T03:29:05.220Z,3.00
2023-05-06T03:30:05.175Z,4.00
2023-05-06T03:31:05.151Z,6.00
2023-05-06T03:32:05.148Z,6.00
2023-05-06T03:33:05.160Z,6.00
2023-05-06T03:34:05.123Z,8.00
2023-05-06T03:35:05.144Z,10.00
2023-05-06T03:36:05.109Z,9.00
2023-05-06T03:37:05.216Z,12.00
2023-05-06T03:38:05.133Z,13.00
2023-05-06T03:39:05.086Z,13.00
2023-05-06T03:40:05.160Z,18.00
2023-05-06T03:41:05.145Z,18.00
2023-05-06T03:42:06.526Z,18.00
2023-05-06T03:43:05.067Z,23.00
2023-05-06T03:44:05.047Z,26.00
2023-05-06T03:45:05.052Z,29.00
2023-05-06T03:46:05.077Z,28.00
2023-05-06T03:47:05.062Z,34.00
2023-05-06T03:48:05.029Z,36.00
2023-05-06T03:49:05.009Z,41.00
2023-05-06T03:50:05.006Z,42.00
2023-05-06T03:51:04.976Z,43.00
2023-05-06T03:52:04.982Z,47.00
2023-05-06T03:53:05.015Z,47.00
2023-05-06T03:54:04.974Z,49.00
2023-05-06T03:55:04.954Z,52.00
2023-05-06T03:56:05.148Z,54.00
2023-05-06T03:57:04.944Z,58.00
2023-05-06T03:58:04.939Z,61.00
2023-05-06T03:59:04.934Z,66.00
2023-05-06T04:00:04.923Z,70.00
2023-05-06T04:01:04.965Z,71.00
2023-05-06T04:02:04.972Z,75.00
2023-05-06T04:03:05.036Z,78.00
2023-05-06T04:04:04.986Z,81.00
2023-05-06T04:05:04.899Z,86.00
2023-05-06T04:06:04.878Z,91.00
2023-05-06T04:07:04.880Z,98.00
2023-05-06T04:08:04.855Z,100.00
2023-05-06T04:09:04.854Z,108.00
2023-05-06T04:10:04.894Z,113.00
2023-05-06T04:11:04.841Z,118.00
2023-05-06T04:12:04.894Z,125.00
2023-05-06T04:13:04.884Z,132.00
2023-05-06T04:14:04.808Z,134.00
2023-05-06T04:15:04.784Z,138.00
2023-05-06T04:16:04.803Z,146.00
2023-05-06T04:17:04.774Z,152.00
2023-05-06T04:18:04.797Z,159.00
2023-05-06T04:19:06.452Z,167.00
2023-05-06T04:20:04.758Z,180.00
2023-05-06T04:21:04.773Z,190.00
2023-05-06T04:22:04.798Z,205.00
2023-05-06T04:23:04.747Z,220.00
2023-05-06T04:24:04.745Z,235.00
2023-05-06T04:25:04.764Z,254.00
2023-05-06T04:26:04.710Z,277.00
2023-05-06T04:27:04.729Z,310.00
2023-05-06T04:28:04.759Z,378.00
2023-05-06T04:29:04.680Z,421.00
2023-05-06T04:30:04.682Z,435.00
2023-05-06T04:31:04.699Z,441.00
2023-05-06T04:32:04.797Z,450.00
2023-05-06T04:33:04.674Z,484.00
2023-05-06T04:34:04.667Z,521.00
2023-05-06T04:35:04.630Z,558.00
2023-05-06T04:36:04.627Z,566.00
2023-05-06T04:37:04.630Z,556.00
2023-05-06T04:38:04.636Z,562.00
2023-05-06T04:39:04.604Z,581.00
2023-05-06T04:40:04.597Z,593.00
2023-05-06T04:41:04.600Z,594.00
2023-05-06T04:42:04.588Z,608.00
2023-05-06T04:43:04.609Z,642.00
2023-05-06T04:44:04.622Z,677.00
2023-05-06T04:45:04.552Z,678.00
2023-05-06T04:46:05.493Z,710.00
2023-05-06T04:47:04.547Z,750.00
2023-05-06T04:48:04.590Z,739.00
2023-05-06T04:49:04.570Z,740.00
2023-05-06T04:50:04.540Z,732.00
2023-05-06T04:51:04.518Z,754.00
2023-05-06T04:52:04.541Z,784.00
2023-05-06T04:53:04.497Z,804.00
2023-05-06T04:54:04.493Z,848.00
2023-05-06T04:55:04.494Z,880.00
2023-05-06T04:56:04.524Z,919.00
2023-05-06T04:57:04.517Z,974.00
2023-05-06T04:58:04.458Z,1006.00
2023-05-06T04:59:04.451Z,1050.00
2023-05-06T05:00:04.458Z,1196.00
2023-05-06T05:01:04.529Z,1032.00
2023-05-06T05:02:04.500Z,883.00
2023-05-06T05:03:04.700Z,823.00
2023-05-06T05:04:04.431Z,772.00
2023-05-06T05:05:04.423Z,736.00
2023-05-06T05:06:04.436Z,755.00
2023-05-06T05:07:04.429Z,762.00
2023-05-06T05:08:04.378Z,857.00
2023-05-06T05:09:04.382Z,924.00
2023-05-06T05:10:04.372Z,998.00
2023-05-06T05:11:04.354Z,890.00
2023-05-06T05:12:04.347Z,818.00
2023-05-06T05:13:04.550Z,821.00
2023-05-06T05:14:04.331Z,838.00
2023-05-06T05:15:04.333Z,807.00
2023-05-06T05:16:04.382Z,734.00
2023-05-06T05:17:04.327Z,749.00
2023-05-06T05:18:04.360Z,803.00
2023-05-06T05:19:04.929Z,759.00
2023-05-06T05:20:04.351Z,685.00
2023-05-06T05:21:05.588Z,765.00
2023-05-06T05:22:04.302Z,813.00
2023-05-06T05:23:04.252Z,828.00
2023-05-06T05:24:04.297Z,859.00
2023-05-06T05:25:05.532Z,894.00
2023-05-06T05:26:04.241Z,918.00
2023-05-06T05:27:04.223Z,937.00
2023-05-06T05:28:04.226Z,959.00
2023-05-06T05:29:04.213Z,978.00
2023-05-06T05:30:06.165Z,1027.00
2023-05-06T05:31:04.319Z,1124.00
2023-05-06T05:32:05.492Z,1189.00
2023-05-06T05:33:04.219Z,1221.00
2023-05-06T05:34:04.165Z,1231.00
2023-05-06T05:35:04.164Z,1286.00
2023-05-06T05:36:04.684Z,1392.00
2023-05-06T05:37:04.168Z,1491.00
2023-05-06T05:38:04.132Z,1514.00
2023-05-06T05:39:04.134Z,1501.00
2023-05-06T05:40:06.263Z,1425.00
2023-05-06T05:41:04.100Z,1376.00
2023-05-06T05:42:04.102Z,1436.00
2023-05-06T05:43:04.105Z,1490.00
2023-05-06T05:44:04.899Z,1517.00
2023-05-06T05:45:04.071Z,1560.00
2023-05-06T05:46:04.100Z,1616.00
2023-05-06T05:47:04.688Z,1727.00
2023-05-06T05:48:04.585Z,1804.00
2023-05-06T05:49:04.060Z,1889.00
2023-05-06T05:50:04.191Z,1959.00
2023-05-06T05:51:05.323Z,2160.00
2023-05-06T05:52:04.016Z,2401.00
2023-05-06T05:53:03.989Z,2419.00
2023-05-06T05:54:04.056Z,2352.00
2023-05-06T05:55:04.002Z,2228.00
2023-05-06T05:56:04.011Z,2290.00
2023-05-06T05:57:03.960Z,2503.00
2023-05-06T05:58:03.968Z,2768.00
2023-05-06T05:59:03.979Z,2756.00
2023-05-06T06:00:03.956Z,2649.00
2023-05-06T06:01:03.934Z,2573.00
2023-05-06T06:02:03.975Z,2369.00
2023-05-06T06:03:04.020Z,2273.00
2023-05-06T06:04:04.421Z,2611.00
2023-05-06T06:05:04.008Z,3073.00
2023-05-06T06:06:04.902Z,3258.00
2023-05-06T06:07:03.904Z,3244.00
2023-05-06T06:08:04.105Z,3265.00
2023-05-06T06:09:03.867Z,2928.00
2023-05-06T06:10:03.896Z,2766.00
2023-05-06T06:11:05.127Z,2783.00
2023-05-06T06:12:03.860Z,2671.00
2023-05-06T06:13:03.882Z,2842.00
2023-05-06T06:14:03.893Z,3436.00
2023-05-06T06:15:03.824Z,3729.00
2023-05-06T06:16:03.909Z,3715.00
2023-05-06T06:17:04.106Z,3515.00
2023-05-06T06:18:03.961Z,3472.00
2023-05-06T06:19:04.414Z,3497.00
2023-05-06T06:20:03.892Z,3415.00
2023-05-06T06:21:04.383Z,3326.00
2023-05-06T06:22:03.778Z,3229.00
2023-05-06T06:23:03.823Z,3063.00
2023-05-06T06:24:03.796Z,2903.00
2023-05-06T06:25:03.772Z,2687.00
2023-05-06T06:26:03.742Z,2536.00
2023-05-06T06:27:03.721Z,2516.00
2023-05-06T06:28:03.731Z,2506.00
2023-05-06T06:29:03.794Z,2490.00
2023-05-06T06:30:05.384Z,2494.00
2023-05-06T06:31:03.757Z,2466.00
2023-05-06T06:32:03.917Z,2419.00
2023-05-06T06:33:03.738Z,2406.00
2023-05-06T06:34:03.719Z,2411.00
2023-05-06T06:35:03.669Z,2375.00
2023-05-06T06:36:03.749Z,2400.00
2023-05-06T06:37:03.647Z,2356.00
2023-05-06T06:38:03.654Z,2336.00
2023-05-06T06:39:03.640Z,2347.00
2023-05-06T06:40:03.624Z,2405.00
2023-05-06T06:41:03.641Z,2507.00
2023-05-06T06:42:03.671Z,2653.00
2023-05-06T06:43:03.611Z,2800.00
2023-05-06T06:44:03.740Z,2819.00
2023-05-06T06:45:03.614Z,2782.00
2023-05-06T06:46:03.722Z,2977.00
2023-05-06T06:47:03.592Z,3094.00
2023-05-06T06:48:12.978Z,3389.00
2023-05-06T06:49:03.613Z,3663.00
2023-05-06T06:50:03.543Z,3918.00
2023-05-06T06:51:03.554Z,4068.00
2023-05-06T06:52:03.536Z,3995.00
2023-05-06T06:53:05.639Z,3985.00
2023-05-06T06:54:03.539Z,3818.00
2023-05-06T06:55:03.624Z,4540.00
2023-05-06T06:56:03.513Z,4854.00
2023-05-06T06:57:03.644Z,4695.00
2023-05-06T06:58:03.573Z,4454.00
2023-05-06T06:59:03.491Z,4370.00
2023-05-06T07:00:03.539Z,4420.00
2023-05-06T07:01:03.511Z,4475.00
2023-05-06T07:02:03.486Z,4541.00
2023-05-06T07:03:03.462Z,4680.00
2023-05-06T07:04:04.316Z,4781.00
2023-05-06T07:05:03.484Z,4814.00
2023-05-06T07:06:03.404Z,5109.00
2023-05-06T07:07:03.438Z,5223.00
2023-05-06T07:08:03.566Z,4791.00
2023-05-06T07:09:03.423Z,4571.00
2023-05-06T07:10:03.381Z,5167.00
2023-05-06T07:11:03.427Z,5420.00
2023-05-06T07:12:03.377Z,5551.00
2023-05-06T07:13:03.995Z,5455.00
2023-05-06T07:14:03.384Z,5475.00
2023-05-06T07:15:03.370Z,5043.00
2023-05-06T07:16:03.332Z,5175.00
2023-05-06T07:17:03.435Z,5223.00
2023-05-06T07:18:03.374Z,5547.00
2023-05-06T07:19:03.320Z,5442.00
2023-05-06T07:20:03.307Z,5425.00
2023-05-06T07:21:03.305Z,5389.00
2023-05-06T07:22:03.287Z,5206.00
2023-05-06T07:23:03.356Z,5283.00
2023-05-06T07:24:03.384Z,6288.00
2023-05-06T07:25:03.261Z,6583.00
2023-05-06T07:26:03.238Z,6966.00
2023-05-06T07:27:03.249Z,7188.00
2023-05-06T07:28:03.232Z,7258.00
2023-05-06T07:29:03.276Z,7327.00
2023-05-06T07:30:03.224Z,6628.00
2023-05-06T07:31:03.223Z,6771.00
2023-05-06T07:32:03.205Z,7408.00
2023-05-06T07:33:03.270Z,6674.00
2023-05-06T07:34:03.182Z,6271.00
2023-05-06T07:35:03.251Z,6066.00
2023-05-06T07:36:03.234Z,5834.00
2023-05-06T07:37:03.196Z,6292.00
2023-05-06T07:38:03.224Z,6163.00
2023-05-06T07:39:03.155Z,6111.00
2023-05-06T07:40:03.305Z,6052.00
2023-05-06T07:41:03.126Z,5998.00
2023-05-06T07:42:03.138Z,6038.00
2023-05-06T07:43:03.116Z,5877.00
2023-05-06T07:44:03.101Z,6206.00
2023-05-06T07:45:03.108Z,6196.00
2023-05-06T07:46:03.251Z,5991.00
2023-05-06T07:47:03.144Z,5296.00
2023-05-06T07:48:03.134Z,6355.00
2023-05-06T07:49:03.066Z,6603.00
2023-05-06T07:50:03.096Z,6943.00
2023-05-06T07:51:03.065Z,7158.00
2023-05-06T07:52:03.068Z,7148.00
2023-05-06T07:53:03.050Z,7074.00
2023-05-06T07:54:03.042Z,7012.00
2023-05-06T07:55:03.032Z,6895.00
2023-05-06T07:56:03.072Z,6432.00
2023-05-06T07:57:03.014Z,6185.00
2023-05-06T07:58:03.034Z,6292.00
2023-05-06T07:59:03.006Z,6143.00
2023-05-06T08:00:02.977Z,6277.00
2023-05-06T08:01:03.011Z,5443.00
2023-05-06T08:02:02.977Z,5587.00
2023-05-06T08:03:03.047Z,6356.00
2023-05-06T08:04:03.097Z,5924.00
2023-05-06T08:05:02.947Z,5355.00
2023-05-06T08:06:02.937Z,5614.00
2023-05-06T08:07:02.956Z,5169.00
2023-05-06T08:08:02.915Z,6109.00
2023-05-06T08:09:02.923Z,6201.00
2023-05-06T08:10:02.895Z,6682.00
2023-05-06T08:11:02.901Z,6694.00
2023-05-06T08:12:02.922Z,6480.00
2023-05-06T08:13:02.917Z,5979.00
2023-05-06T08:14:02.864Z,5541.00
2023-05-06T08:15:03.004Z,5712.00
2023-05-06T08:16:02.883Z,6291.00
2023-05-06T08:17:02.853Z,6557.00
2023-05-06T08:18:10.366Z,6474.00
2023-05-06T08:19:03.887Z,6464.00
2023-05-06T08:20:02.804Z,6529.00
2023-05-06T08:21:02.860Z,6467.00
2023-05-06T08:22:02.787Z,6473.00
2023-05-06T08:23:02.785Z,6000.00
2023-05-06T08:24:02.773Z,6223.00
2023-05-06T08:25:02.787Z,5815.00
2023-05-06T08:26:02.756Z,5912.00
2023-05-06T08:27:02.797Z,6306.00
2023-05-06T08:28:02.827Z,6293.00
2023-05-06T08:29:02.753Z,6284.00
2023-05-06T08:30:02.742Z,6318.00
2023-05-06T08:31:02.783Z,6267.00
2023-05-06T08:32:02.848Z,6294.00
2023-05-06T08:33:02.756Z,6243.00
2023-05-06T08:34:02.697Z,6242.00
2023-05-06T08:35:02.711Z,6240.00
2023-05-06T08:36:02.697Z,6311.00
2023-05-06T08:37:02.726Z,6334.00
2023-05-06T08:38:02.690Z,6401.00
2023-05-06T08:39:02.666Z,6398.00
2023-05-06T08:40:02.645Z,6354.00
2023-05-06T08:41:02.651Z,6259.00
2023-05-06T08:42:02.676Z,6116.00
2023-05-06T08:43:02.676Z,6176.00
2023-05-06T08:44:02.740Z,6214.00
2023-05-06T08:45:02.627Z,6201.00
2023-05-06T08:46:02.705Z,6270.00
2023-05-06T08:47:02.615Z,6277.00
2023-05-06T08:48:02.625Z,6301.00
2023-05-06T08:49:02.595Z,6291.00
2023-05-06T08:50:02.644Z,6405.00
2023-05-06T08:51:02.616Z,6422.00
2023-05-06T08:52:02.561Z,6451.00
2023-05-06T08:53:02.565Z,6474.00
2023-05-06T08:54:02.569Z,6487.00
2023-05-06T08:55:02.552Z,6493.00
2023-05-06T08:56:02.555Z,6424.00
2023-05-06T08:57:02.585Z,6460.00
2023-05-06T08:58:02.548Z,6370.00
2023-05-06T08:59:02.543Z,6329.00
2023-05-06T09:00:02.500Z,6265.00
2023-05-06T09:01:02.525Z,6184.00
2023-05-06T09:02:02.526Z,6124.00
2023-05-06T09:03:02.651Z,6078.00
2023-05-06T09:04:02.482Z,6079.00
2023-05-06T09:05:02.484Z,6169.00
2023-05-06T09:06:02.451Z,6168.00
2023-05-06T09:07:02.462Z,6119.00
2023-05-06T09:08:02.469Z,6075.00
2023-05-06T09:09:02.456Z,6102.00
2023-05-06T09:10:02.480Z,6026.00
2023-05-06T09:11:02.431Z,6113.00
2023-05-06T09:12:02.424Z,6212.00
2023-05-06T09:13:02.440Z,6196.00
2023-05-06T09:14:02.412Z,6290.00
2023-05-06T09:15:02.399Z,6424.00
2023-05-06T09:16:02.513Z,6383.00
2023-05-06T09:17:02.458Z,6548.00
2023-05-06T09:18:02.399Z,6610.00
2023-05-06T09:19:02.382Z,6722.00
2023-05-06T09:20:02.386Z,6772.00
2023-05-06T09:21:02.349Z,6732.00
2023-05-06T09:22:02.325Z,6593.00
2023-05-06T09:23:02.334Z,6399.00
2023-05-06T09:24:02.325Z,6304.00
2023-05-06T09:25:02.315Z,6434.00
2023-05-06T09:26:02.335Z,6439.00
2023-05-06T09:27:02.305Z,6521.00
2023-05-06T09:28:02.303Z,6619.00
2023-05-06T09:29:02.294Z,6782.00
2023-05-06T09:30:02.328Z,6946.00
2023-05-06T09:31:02.333Z,6977.00
2023-05-06T09:32:02.319Z,6893.00
2023-05-06T09:33:02.350Z,6862.00
2023-05-06T09:34:02.225Z,6886.00
2023-05-06T09:35:02.227Z,6805.00
2023-05-06T09:36:02.218Z,6626.00
2023-05-06T09:37:02.309Z,5442.00
2023-05-06T09:38:02.205Z,5676.00
2023-05-06T09:39:02.246Z,6485.00
2023-05-06T09:40:02.181Z,6046.00
2023-05-06T09:41:02.192Z,6305.00
2023-05-06T09:42:02.179Z,6262.00
2023-05-06T09:43:02.213Z,6235.00
2023-05-06T09:44:02.146Z,6382.00
2023-05-06T09:45:02.409Z,6427.00
2023-05-06T09:46:02.143Z,6517.00
2023-05-06T09:47:02.120Z,6594.00
2023-05-06T09:48:02.190Z,6559.00
2023-05-06T09:49:02.163Z,6514.00
2023-05-06T09:50:02.210Z,6599.00
2023-05-06T09:51:02.106Z,6719.00
2023-05-06T09:52:02.093Z,6878.00
2023-05-06T09:53:02.090Z,7019.00
2023-05-06T09:54:02.074Z,7105.00
2023-05-06T09:55:02.179Z,7125.00
2023-05-06T09:56:02.111Z,7075.00
2023-05-06T09:57:02.059Z,6982.00
2023-05-06T09:58:02.081Z,6730.00
2023-05-06T09:59:02.050Z,6810.00
2023-05-06T10:00:02.065Z,6856.00
2023-05-06T10:01:02.046Z,6591.00
2023-05-06T10:02:02.050Z,6272.00
2023-05-06T10:03:02.163Z,6921.00
2023-05-06T10:04:02.141Z,6541.00
2023-05-06T10:05:02.192Z,6725.00
2023-05-06T10:06:02.016Z,6943.00
2023-05-06T10:07:02.047Z,6855.00
2023-05-06T10:08:02.017Z,7060.00
2023-05-06T10:09:01.988Z,6941.00
2023-05-06T10:10:01.960Z,6844.00
2023-05-06T10:11:01.966Z,6928.00
2023-05-06T10:12:01.949Z,6920.00
2023-05-06T10:13:01.988Z,6958.00
2023-05-06T10:14:01.973Z,6905.00
2023-05-06T10:15:02.041Z,6710.00
2023-05-06T10:16:01.968Z,6083.00
2023-05-06T10:17:01.906Z,6831.00
2023-05-06T10:18:01.986Z,6857.00
2023-05-06T10:19:01.893Z,6738.00
2023-05-06T10:20:01.894Z,6443.00
2023-05-06T10:21:01.886Z,6376.00
2023-05-06T10:22:03.006Z,6368.00
2023-05-06T10:23:01.852Z,6366.00
2023-05-06T10:24:01.876Z,6597.00
2023-05-06T10:25:01.825Z,5667.00
2023-05-06T10:26:01.808Z,5444.00
2023-05-06T10:27:01.808Z,5601.00
2023-05-06T10:28:02.970Z,7157.00
2023-05-06T10:29:01.814Z,6599.00
2023-05-06T10:30:01.820Z,7200.00
2023-05-06T10:31:01.804Z,7304.00
2023-05-06T10:32:02.082Z,7334.00
2023-05-06T10:33:01.809Z,7359.00
2023-05-06T10:34:01.746Z,7317.00
2023-05-06T10:35:01.774Z,7336.00
2023-05-06T10:36:01.746Z,7308.00
2023-05-06T10:37:01.752Z,7241.00
2023-05-06T10:38:01.723Z,7342.00
2023-05-06T10:39:01.729Z,7352.00
2023-05-06T10:40:01.691Z,7124.00
2023-05-06T10:41:01.696Z,7194.00
2023-05-06T10:42:01.781Z,7150.00
2023-05-06T10:43:01.722Z,7044.00
2023-05-06T10:44:01.668Z,5864.00
2023-05-06T10:45:01.683Z,6804.00
2023-05-06T10:46:01.725Z,6797.00
2023-05-06T10:47:01.665Z,6705.00
2023-05-06T10:48:01.730Z,6657.00
2023-05-06T10:49:01.650Z,6697.00
2023-05-06T10:50:01.609Z,6340.00
2023-05-06T10:51:01.621Z,6499.00
2023-05-06T10:52:01.593Z,5785.00
2023-05-06T10:53:01.579Z,6856.00
2023-05-06T10:54:01.710Z,5894.00
2023-05-06T10:55:01.619Z,5641.00
2023-05-06T10:56:01.749Z,6734.00
2023-05-06T10:57:01.548Z,6101.00
2023-05-06T10:58:01.547Z,6698.00
2023-05-06T10:59:01.531Z,5980.00
2023-05-06T11:00:01.586Z,6365.00
2023-05-06T11:01:01.607Z,5292.00
2023-05-06T11:02:01.590Z,5460.00
2023-05-06T11:03:04.653Z,5374.00
2023-05-06T11:04:02.505Z,5435.00
2023-05-06T11:05:01.531Z,5702.00
2023-05-06T11:06:01.539Z,5511.00
2023-05-06T11:07:01.454Z,5386.00
2023-05-06T11:08:01.470Z,5301.00
2023-05-06T11:09:01.458Z,5286.00
2023-05-06T11:10:01.476Z,5265.00
2023-05-06T11:11:01.497Z,5381.00
2023-05-06T11:12:01.457Z,5362.00
2023-05-06T11:13:01.471Z,5278.00
2023-05-06T11:14:01.429Z,6660.00
2023-05-06T11:15:01.419Z,6476.00
2023-05-06T11:16:01.487Z,6683.00
2023-05-06T11:17:01.541Z,5762.00
2023-05-06T11:18:01.437Z,5309.00
2023-05-06T11:19:01.381Z,6148.00
2023-05-06T11:20:01.362Z,6875.00
2023-05-06T11:21:01.369Z,7092.00
2023-05-06T11:22:01.390Z,7462.00
2023-05-06T11:23:01.336Z,7712.00
2023-05-06T11:24:01.336Z,7855.00
2023-05-06T11:25:01.312Z,7800.00
2023-05-06T11:26:01.319Z,7646.00
2023-05-06T11:27:01.390Z,7517.00
2023-05-06T11:28:01.404Z,7463.00
2023-05-06T11:29:01.295Z,7355.00
2023-05-06T11:30:01.294Z,7305.00
2023-05-06T11:31:01.287Z,5396.00
2023-05-06T11:32:01.284Z,5199.00
2023-05-06T11:33:03.255Z,4969.00
2023-05-06T11:34:01.306Z,4943.00
2023-05-06T11:35:01.238Z,4931.00
2023-05-06T11:36:01.257Z,5014.00
2023-05-06T11:37:01.222Z,5323.00
2023-05-06T11:38:01.264Z,5799.00
2023-05-06T11:39:03.433Z,7377.00
2023-05-06T11:40:01.777Z,7491.00
2023-05-06T11:41:01.188Z,7444.00
2023-05-06T11:42:01.239Z,7347.00
2023-05-06T11:43:01.179Z,7272.00
2023-05-06T11:44:01.177Z,7170.00
2023-05-06T11:45:01.162Z,7466.00
2023-05-06T11:46:01.226Z,7298.00
2023-05-06T11:47:01.147Z,7182.00
2023-05-06T11:48:01.249Z,7161.00
2023-05-06T11:49:01.149Z,7123.00
2023-05-06T11:50:01.448Z,7099.00
2023-05-06T11:51:01.145Z,7049.00
2023-05-06T11:52:01.136Z,7153.00
2023-05-06T11:53:01.104Z,7131.00
2023-05-06T11:54:01.089Z,7184.00
2023-05-06T11:55:01.088Z,7159.00
2023-05-06T11:56:01.140Z,7156.00
2023-05-06T11:57:01.069Z,7137.00
2023-05-06T11:58:01.114Z,7160.00
2023-05-06T11:59:01.062Z,7066.00
2023-05-06T12:00:01.054Z,7197.00
2023-05-06T12:01:01.036Z,7190.00
2023-05-06T12:02:01.034Z,7191.00
2023-05-06T12:03:01.067Z,7270.00
2023-05-06T12:04:01.152Z,7269.00
2023-05-06T12:05:01.041Z,7316.00
2023-05-06T12:06:01.015Z,7415.00
2023-05-06T12:07:00.999Z,7479.00
2023-05-06T12:08:00.991Z,7426.00
2023-05-06T12:09:00.980Z,7449.00
2023-05-06T12:10:00.992Z,7278.00
2023-05-06T12:11:00.955Z,7176.00
2023-05-06T12:12:00.960Z,7118.00
2023-05-06T12:13:00.978Z,7049.00
2023-05-06T12:14:00.946Z,5208.00
2023-05-06T12:15:00.944Z,5060.00
2023-05-06T12:16:00.964Z,5517.00
2023-05-06T12:17:00.896Z,5261.00
2023-05-06T12:18:00.960Z,5170.00
2023-05-06T12:19:00.947Z,5104.00
2023-05-06T12:20:00.892Z,5210.00
2023-05-06T12:21:00.915Z,5241.00
2023-05-06T12:22:00.869Z,5955.00
2023-05-06T12:23:00.862Z,5781.00
2023-05-06T12:24:00.888Z,6721.00
2023-05-06T12:25:00.850Z,7389.00
2023-05-06T12:26:00.876Z,7455.00
2023-05-06T12:27:00.864Z,7554.00
2023-05-06T12:28:00.896Z,7642.00
2023-05-06T12:29:00.812Z,7493.00